sensor_id;sensor_type;location;lat;lon;timestamp;P1;durP1;ratioP1;P2;durP2;ratioP2
20462;SDS011;10390;53.566;9.980;2023-07-20T00:01:13;9.13;;;8.23;;
20462;SDS011;10390;53.566;9.980;2023-07-20T00:03:39;8.82;;;8.02;;
20462;SDS011;10390;53.566;9.980;2023-07-20T00:06:04;9.05;;;8.15;;
20462;SDS011;10390;53.566;9.980;2023-07-20T00:08:30;9.50;;;8.60;;
20462;SDS011;10390;53.566;9.980;2023-07-20T00:10:56;9.32;;;8.43;;
20462;SDS011;10390;53.566;9.980;2023-07-20T00:13:22;9.30;;;8.40;;
20462;SDS011;10390;53.566;9.980;2023-07-20T00:15:47;9.70;;;8.73;;
20462;SDS011;10390;53.566;9.980;2023-07-20T00:18:13;10.70;;;9.57;;
20462;SDS011;10390;53.566;9.980;2023-07-20T00:20:39;9.50;;;8.50;;
20462;SDS011;10390;53.566;9.980;2023-07-20T00:23:05;9.82;;;8.82;;
20462;SDS011;10390;53.566;9.980;2023-07-20T00:25:30;10.88;;;9.77;;
20462;SDS011;10390;53.566;9.980;2023-07-20T00:27:56;10.55;;;9.18;;
20462;SDS011;10390;53.566;9.980;2023-07-20T00:30:21;10.32;;;9.32;;
20462;SDS011;10390;53.566;9.980;2023-07-20T00:32:47;10.02;;;9.02;;
20462;SDS011;10390;53.566;9.980;2023-07-20T00:35:13;10.07;;;9.07;;
20462;SDS011;10390;53.566;9.980;2023-07-20T00:37:39;10.02;;;9.02;;
20462;SDS011;10390;53.566;9.980;2023-07-20T00:40:05;10.02;;;8.98;;
20462;SDS011;10390;53.566;9.980;2023-07-20T00:42:32;10.63;;;9.52;;
20462;SDS011;10390;53.566;9.980;2023-07-20T00:44:58;10.30;;;9.30;;
20462;SDS011;10390;53.566;9.980;2023-07-20T00:47:24;10.65;;;9.57;;
20462;SDS011;10390;53.566;9.980;2023-07-20T00:49:50;10.13;;;9.13;;
20462;SDS011;10390;53.566;9.980;2023-07-20T00:52:16;10.50;;;9.40;;
20462;SDS011;10390;53.566;9.980;2023-07-20T00:54:45;10.30;;;9.30;;
20462;SDS011;10390;53.566;9.980;2023-07-20T00:57:12;10.60;;;9.60;;
20462;SDS011;10390;53.566;9.980;2023-07-20T00:59:42;10.75;;;9.25;;
20462;SDS011;10390;53.566;9.980;2023-07-20T01:02:08;10.13;;;9.13;;
20462;SDS011;10390;53.566;9.980;2023-07-20T01:04:34;9.93;;;8.98;;
20462;SDS011;10390;53.566;9.980;2023-07-20T01:07:14;10.18;;;9.20;;
20462;SDS011;10390;53.566;9.980;2023-07-20T01:09:52;10.55;;;9.50;;
20462;SDS011;10390;53.566;9.980;2023-07-20T01:12:42;9.98;;;9.07;;
20462;SDS011;10390;53.566;9.980;2023-07-20T01:15:09;9.02;;;8.13;;
20462;SDS011;10390;53.566;9.980;2023-07-20T01:17:35;9.90;;;9.00;;
20462;SDS011;10390;53.566;9.980;2023-07-20T01:20:01;9.68;;;8.77;;
20462;SDS011;10390;53.566;9.980;2023-07-20T01:33:27;9.60;;;8.70;;
20462;SDS011;10390;53.566;9.980;2023-07-20T01:35:57;9.38;;;8.38;;
20462;SDS011;10390;53.566;9.980;2023-07-20T01:38:24;9.60;;;8.65;;
20462;SDS011;10390;53.566;9.980;2023-07-20T01:40:50;9.00;;;8.10;;
20462;SDS011;10390;53.566;9.980;2023-07-20T01:43:17;9.18;;;8.27;;
20462;SDS011;10390;53.566;9.980;2023-07-20T01:45:43;8.65;;;7.75;;
20462;SDS011;10390;53.566;9.980;2023-07-20T01:48:09;9.32;;;8.40;;
20462;SDS011;10390;53.566;9.980;2023-07-20T01:50:35;8.85;;;8.02;;
20462;SDS011;10390;53.566;9.980;2023-07-20T01:53:01;8.98;;;8.07;;
20462;SDS011;10390;53.566;9.980;2023-07-20T01:55:27;9.13;;;8.20;;
20462;SDS011;10390;53.566;9.980;2023-07-20T01:57:53;9.40;;;7.85;;
20462;SDS011;10390;53.566;9.980;2023-07-20T02:00:19;8.57;;;7.68;;
20462;SDS011;10390;53.566;9.980;2023-07-20T02:02:49;9.05;;;8.18;;
20462;SDS011;10390;53.566;9.980;2023-07-20T02:05:15;8.52;;;7.72;;
20462;SDS011;10390;53.566;9.980;2023-07-20T02:07:41;8.50;;;7.70;;
20462;SDS011;10390;53.566;9.980;2023-07-20T02:10:07;8.85;;;7.95;;
20462;SDS011;10390;53.566;9.980;2023-07-20T02:12:33;8.73;;;7.93;;
20462;SDS011;10390;53.566;9.980;2023-07-20T02:14:58;8.95;;;8.15;;
20462;SDS011;10390;53.566;9.980;2023-07-20T02:17:24;8.38;;;7.57;;
20462;SDS011;10390;53.566;9.980;2023-07-20T02:19:50;8.65;;;7.85;;
20462;SDS011;10390;53.566;9.980;2023-07-20T02:22:17;8.52;;;7.72;;
20462;SDS011;10390;53.566;9.980;2023-07-20T02:24:43;8.50;;;7.70;;
20462;SDS011;10390;53.566;9.980;2023-07-20T02:27:09;9.38;;;8.48;;
20462;SDS011;10390;53.566;9.980;2023-07-20T02:29:34;9.07;;;8.18;;
20462;SDS011;10390;53.566;9.980;2023-07-20T02:32:01;8.40;;;7.60;;
20462;SDS011;10390;53.566;9.980;2023-07-20T02:34:26;8.75;;;7.47;;
20462;SDS011;10390;53.566;9.980;2023-07-20T02:36:52;8.45;;;7.65;;
20462;SDS011;10390;53.566;9.980;2023-07-20T02:39:17;7.90;;;7.10;;
20462;SDS011;10390;53.566;9.980;2023-07-20T02:41:43;8.00;;;7.20;;
20462;SDS011;10390;53.566;9.980;2023-07-20T02:44:09;8.32;;;7.47;;
20462;SDS011;10390;53.566;9.980;2023-07-20T02:46:34;8.20;;;7.40;;
20462;SDS011;10390;53.566;9.980;2023-07-20T02:49:00;7.88;;;7.07;;
20462;SDS011;10390;53.566;9.980;2023-07-20T02:51:26;8.40;;;7.57;;
20462;SDS011;10390;53.566;9.980;2023-07-20T02:53:51;8.30;;;7.50;;
20462;SDS011;10390;53.566;9.980;2023-07-20T02:56:17;7.78;;;6.97;;
20462;SDS011;10390;53.566;9.980;2023-07-20T02:58:43;8.55;;;7.70;;
20462;SDS011;10390;53.566;9.980;2023-07-20T03:01:09;8.30;;;7.50;;
20462;SDS011;10390;53.566;9.980;2023-07-20T03:03:36;7.55;;;6.78;;
20462;SDS011;10390;53.566;9.980;2023-07-20T03:06:04;8.13;;;7.32;;
20462;SDS011;10390;53.566;9.980;2023-07-20T03:08:30;8.60;;;7.80;;
20462;SDS011;10390;53.566;9.980;2023-07-20T03:10:55;8.25;;;7.45;;
20462;SDS011;10390;53.566;9.980;2023-07-20T03:13:21;8.57;;;7.68;;
20462;SDS011;10390;53.566;9.980;2023-07-20T03:15:49;8.40;;;7.60;;
20462;SDS011;10390;53.566;9.980;2023-07-20T03:18:14;8.73;;;7.93;;
20462;SDS011;10390;53.566;9.980;2023-07-20T03:20:40;8.48;;;7.68;;
20462;SDS011;10390;53.566;9.980;2023-07-20T03:23:05;8.45;;;7.65;;
20462;SDS011;10390;53.566;9.980;2023-07-20T03:25:31;8.50;;;7.70;;
20462;SDS011;10390;53.566;9.980;2023-07-20T03:27:56;8.77;;;7.97;;
20462;SDS011;10390;53.566;9.980;2023-07-20T03:30:22;8.70;;;7.85;;
20462;SDS011;10390;53.566;9.980;2023-07-20T03:32:48;8.50;;;7.70;;
20462;SDS011;10390;53.566;9.980;2023-07-20T03:35:13;8.55;;;7.75;;
20462;SDS011;10390;53.566;9.980;2023-07-20T03:37:40;8.20;;;7.40;;
20462;SDS011;10390;53.566;9.980;2023-07-20T03:40:07;8.90;;;8.00;;
20462;SDS011;10390;53.566;9.980;2023-07-20T03:42:33;7.97;;;7.18;;
20462;SDS011;10390;53.566;9.980;2023-07-20T03:44:59;8.43;;;7.53;;
20462;SDS011;10390;53.566;9.980;2023-07-20T03:47:24;8.82;;;7.97;;
20462;SDS011;10390;53.566;9.980;2023-07-20T03:49:50;8.90;;;8.00;;
20462;SDS011;10390;53.566;9.980;2023-07-20T03:52:15;9.05;;;8.15;;
20462;SDS011;10390;53.566;9.980;2023-07-20T03:54:41;8.32;;;7.53;;
20462;SDS011;10390;53.566;9.980;2023-07-20T03:57:06;8.23;;;7.43;;
20462;SDS011;10390;53.566;9.980;2023-07-20T03:59:32;8.98;;;8.18;;
20462;SDS011;10390;53.566;9.980;2023-07-20T04:01:58;9.57;;;8.57;;
20462;SDS011;10390;53.566;9.980;2023-07-20T04:04:24;8.68;;;7.80;;
20462;SDS011;10390;53.566;9.980;2023-07-20T04:06:49;9.25;;;8.40;;
20462;SDS011;10390;53.566;9.980;2023-07-20T04:09:15;8.70;;;7.80;;
20462;SDS011;10390;53.566;9.980;2023-07-20T04:11:41;8.57;;;7.78;;
20462;SDS011;10390;53.566;9.980;2023-07-20T04:14:06;8.35;;;7.55;;
20462;SDS011;10390;53.566;9.980;2023-07-20T04:16:32;9.50;;;8.60;;
20462;SDS011;10390;53.566;9.980;2023-07-20T04:18:58;9.07;;;8.18;;
20462;SDS011;10390;53.566;9.980;2023-07-20T04:21:25;8.80;;;7.90;;
20462;SDS011;10390;53.566;9.980;2023-07-20T04:23:53;8.70;;;7.88;;
20462;SDS011;10390;53.566;9.980;2023-07-20T04:26:18;8.48;;;7.68;;
20462;SDS011;10390;53.566;9.980;2023-07-20T04:28:44;9.32;;;8.43;;
20462;SDS011;10390;53.566;9.980;2023-07-20T04:31:10;9.15;;;8.25;;
20462;SDS011;10390;53.566;9.980;2023-07-20T04:33:37;9.48;;;8.57;;
20462;SDS011;10390;53.566;9.980;2023-07-20T04:36:03;8.85;;;8.05;;
20462;SDS011;10390;53.566;9.980;2023-07-20T04:38:29;9.40;;;8.40;;
20462;SDS011;10390;53.566;9.980;2023-07-20T04:40:54;9.48;;;8.48;;
20462;SDS011;10390;53.566;9.980;2023-07-20T04:43:20;8.63;;;7.82;;
20462;SDS011;10390;53.566;9.980;2023-07-20T04:45:46;9.23;;;8.32;;
20462;SDS011;10390;53.566;9.980;2023-07-20T04:48:12;8.40;;;7.60;;
20462;SDS011;10390;53.566;9.980;2023-07-20T04:50:43;9.52;;;8.63;;
20462;SDS011;10390;53.566;9.980;2023-07-20T04:53:10;9.05;;;8.25;;
20462;SDS011;10390;53.566;9.980;2023-07-20T04:55:39;8.55;;;7.68;;
20462;SDS011;10390;53.566;9.980;2023-07-20T04:58:05;8.13;;;7.32;;
20462;SDS011;10390;53.566;9.980;2023-07-20T05:00:32;9.38;;;8.45;;
20462;SDS011;10390;53.566;9.980;2023-07-20T05:02:58;8.93;;;7.78;;
20462;SDS011;10390;53.566;9.980;2023-07-20T05:05:24;8.15;;;7.35;;
20462;SDS011;10390;53.566;9.980;2023-07-20T05:07:49;8.48;;;7.68;;
20462;SDS011;10390;53.566;9.980;2023-07-20T05:10:15;8.73;;;7.82;;
20462;SDS011;10390;53.566;9.980;2023-07-20T05:12:41;8.88;;;8.02;;
20462;SDS011;10390;53.566;9.980;2023-07-20T05:15:07;8.43;;;7.60;;
20462;SDS011;10390;53.566;9.980;2023-07-20T05:17:33;8.35;;;7.55;;
20462;SDS011;10390;53.566;9.980;2023-07-20T05:19:58;8.25;;;7.32;;
20462;SDS011;10390;53.566;9.980;2023-07-20T05:22:24;7.90;;;7.20;;
20462;SDS011;10390;53.566;9.980;2023-07-20T05:24:50;9.00;;;8.18;;
20462;SDS011;10390;53.566;9.980;2023-07-20T05:27:16;7.88;;;7.07;;
20462;SDS011;10390;53.566;9.980;2023-07-20T05:29:45;7.80;;;7.10;;
20462;SDS011;10390;53.566;9.980;2023-07-20T05:32:11;7.75;;;6.95;;
20462;SDS011;10390;53.566;9.980;2023-07-20T05:34:37;7.70;;;6.90;;
20462;SDS011;10390;53.566;9.980;2023-07-20T05:37:03;8.15;;;7.35;;
20462;SDS011;10390;53.566;9.980;2023-07-20T05:39:29;7.68;;;6.97;;
20462;SDS011;10390;53.566;9.980;2023-07-20T05:41:54;8.15;;;7.35;;
20462;SDS011;10390;53.566;9.980;2023-07-20T05:44:20;7.35;;;6.47;;
20462;SDS011;10390;53.566;9.980;2023-07-20T05:46:45;7.95;;;7.15;;
20462;SDS011;10390;53.566;9.980;2023-07-20T05:49:11;7.28;;;6.57;;
20462;SDS011;10390;53.566;9.980;2023-07-20T05:51:36;7.72;;;7.00;;
20462;SDS011;10390;53.566;9.980;2023-07-20T05:54:02;7.97;;;7.28;;
20462;SDS011;10390;53.566;9.980;2023-07-20T05:56:27;7.82;;;7.03;;
20462;SDS011;10390;53.566;9.980;2023-07-20T05:58:53;7.40;;;6.70;;
20462;SDS011;10390;53.566;9.980;2023-07-20T06:01:19;7.95;;;7.25;;
20462;SDS011;10390;53.566;9.980;2023-07-20T06:03:44;7.35;;;6.65;;
20462;SDS011;10390;53.566;9.980;2023-07-20T06:06:10;7.70;;;6.90;;
20462;SDS011;10390;53.566;9.980;2023-07-20T06:08:37;7.10;;;6.40;;
20462;SDS011;10390;53.566;9.980;2023-07-20T06:11:03;6.82;;;5.95;;
20462;SDS011;10390;53.566;9.980;2023-07-20T06:13:28;6.28;;;5.65;;
20462;SDS011;10390;53.566;9.980;2023-07-20T06:15:54;6.68;;;6.05;;
20462;SDS011;10390;53.566;9.980;2023-07-20T06:18:21;7.57;;;6.72;;
20462;SDS011;10390;53.566;9.980;2023-07-20T06:20:50;7.00;;;6.22;;
20462;SDS011;10390;53.566;9.980;2023-07-20T06:23:16;7.03;;;6.32;;
20462;SDS011;10390;53.566;9.980;2023-07-20T06:25:43;6.43;;;5.72;;
20462;SDS011;10390;53.566;9.980;2023-07-20T06:28:09;6.72;;;6.10;;
20462;SDS011;10390;53.566;9.980;2023-07-20T06:30:34;7.28;;;6.57;;
20462;SDS011;10390;53.566;9.980;2023-07-20T06:33:00;7.43;;;6.72;;
20462;SDS011;10390;53.566;9.980;2023-07-20T06:35:25;7.35;;;6.65;;
20462;SDS011;10390;53.566;9.980;2023-07-20T06:37:51;6.60;;;6.00;;
20462;SDS011;10390;53.566;9.980;2023-07-20T06:40:17;7.25;;;6.55;;
20462;SDS011;10390;53.566;9.980;2023-07-20T06:42:43;8.00;;;6.30;;
20462;SDS011;10390;53.566;9.980;2023-07-20T06:45:09;7.22;;;5.80;;
20462;SDS011;10390;53.566;9.980;2023-07-20T06:47:37;7.72;;;5.85;;
20462;SDS011;10390;53.566;9.980;2023-07-20T06:50:04;6.38;;;5.78;;
20462;SDS011;10390;53.566;9.980;2023-07-20T06:52:31;6.75;;;6.05;;
20462;SDS011;10390;53.566;9.980;2023-07-20T06:54:57;6.82;;;6.20;;
20462;SDS011;10390;53.566;9.980;2023-07-20T06:57:22;7.07;;;6.38;;
20462;SDS011;10390;53.566;9.980;2023-07-20T06:59:48;6.70;;;6.00;;
20462;SDS011;10390;53.566;9.980;2023-07-20T07:02:13;6.05;;;5.45;;
20462;SDS011;10390;53.566;9.980;2023-07-20T07:04:39;7.38;;;6.68;;
20462;SDS011;10390;53.566;9.980;2023-07-20T07:07:05;7.60;;;6.90;;
20462;SDS011;10390;53.566;9.980;2023-07-20T07:09:30;6.82;;;6.13;;
20462;SDS011;10390;53.566;9.980;2023-07-20T07:11:56;7.03;;;6.32;;
20462;SDS011;10390;53.566;9.980;2023-07-20T07:14:22;7.30;;;6.60;;
20462;SDS011;10390;53.566;9.980;2023-07-20T07:16:47;6.85;;;6.25;;
20462;SDS011;10390;53.566;9.980;2023-07-20T07:19:13;6.80;;;6.10;;
20462;SDS011;10390;53.566;9.980;2023-07-20T07:21:38;7.13;;;6.43;;
20462;SDS011;10390;53.566;9.980;2023-07-20T07:24:04;6.55;;;5.95;;
20462;SDS011;10390;53.566;9.980;2023-07-20T07:26:32;6.93;;;6.22;;
20462;SDS011;10390;53.566;9.980;2023-07-20T07:28:58;7.22;;;6.53;;
20462;SDS011;10390;53.566;9.980;2023-07-20T07:31:24;6.68;;;6.07;;
20462;SDS011;10390;53.566;9.980;2023-07-20T07:33:50;6.75;;;6.13;;
20462;SDS011;10390;53.566;9.980;2023-07-20T07:36:16;7.40;;;6.47;;
20462;SDS011;10390;53.566;9.980;2023-07-20T07:38:42;6.75;;;6.15;;
20462;SDS011;10390;53.566;9.980;2023-07-20T07:41:08;7.40;;;6.70;;
20462;SDS011;10390;53.566;9.980;2023-07-20T07:43:33;6.65;;;6.00;;
20462;SDS011;10390;53.566;9.980;2023-07-20T07:46:00;6.82;;;6.18;;
20462;SDS011;10390;53.566;9.980;2023-07-20T07:48:25;6.90;;;6.20;;
20462;SDS011;10390;53.566;9.980;2023-07-20T07:50:53;6.85;;;6.25;;
20462;SDS011;10390;53.566;9.980;2023-07-20T07:53:19;7.03;;;6.43;;
20462;SDS011;10390;53.566;9.980;2023-07-20T07:55:45;6.70;;;6.10;;
20462;SDS011;10390;53.566;9.980;2023-07-20T07:58:12;7.32;;;6.63;;
20462;SDS011;10390;53.566;9.980;2023-07-20T08:00:38;7.00;;;6.40;;
20462;SDS011;10390;53.566;9.980;2023-07-20T08:03:05;7.18;;;6.55;;
20462;SDS011;10390;53.566;9.980;2023-07-20T08:05:32;7.40;;;6.70;;
20462;SDS011;10390;53.566;9.980;2023-07-20T08:07:58;8.13;;;7.43;;
20462;SDS011;10390;53.566;9.980;2023-07-20T08:10:23;7.63;;;6.93;;
20462;SDS011;10390;53.566;9.980;2023-07-20T08:12:49;7.55;;;6.88;;
20462;SDS011;10390;53.566;9.980;2023-07-20T08:15:14;7.32;;;6.63;;
20462;SDS011;10390;53.566;9.980;2023-07-20T08:17:43;6.90;;;6.20;;
20462;SDS011;10390;53.566;9.980;2023-07-20T08:20:09;7.53;;;6.82;;
20462;SDS011;10390;53.566;9.980;2023-07-20T08:22:38;6.85;;;6.25;;
20462;SDS011;10390;53.566;9.980;2023-07-20T08:25:06;6.75;;;6.15;;
20462;SDS011;10390;53.566;9.980;2023-07-20T08:27:33;6.70;;;6.10;;
20462;SDS011;10390;53.566;9.980;2023-07-20T08:29:58;6.55;;;5.95;;
20462;SDS011;10390;53.566;9.980;2023-07-20T08:32:25;7.10;;;6.50;;
20462;SDS011;10390;53.566;9.980;2023-07-20T08:34:51;6.60;;;6.00;;
20462;SDS011;10390;53.566;9.980;2023-07-20T08:37:16;6.90;;;6.30;;
20462;SDS011;10390;53.566;9.980;2023-07-20T08:39:42;6.82;;;6.22;;
20462;SDS011;10390;53.566;9.980;2023-07-20T08:42:16;6.82;;;6.20;;
20462;SDS011;10390;53.566;9.980;2023-07-20T08:44:42;6.95;;;6.25;;
20462;SDS011;10390;53.566;9.980;2023-07-20T08:47:10;6.85;;;6.15;;
20462;SDS011;10390;53.566;9.980;2023-07-20T08:49:38;5.80;;;5.28;;
20462;SDS011;10390;53.566;9.980;2023-07-20T08:52:06;7.00;;;6.30;;
20462;SDS011;10390;53.566;9.980;2023-07-20T08:54:32;7.43;;;6.80;;
20462;SDS011;10390;53.566;9.980;2023-07-20T08:57:02;7.72;;;6.95;;
20462;SDS011;10390;53.566;9.980;2023-07-20T08:59:29;6.82;;;6.07;;
20462;SDS011;10390;53.566;9.980;2023-07-20T09:01:56;7.50;;;6.75;;
20462;SDS011;10390;53.566;9.980;2023-07-20T09:04:23;6.88;;;6.25;;
20462;SDS011;10390;53.566;9.980;2023-07-20T09:06:49;6.85;;;6.25;;
20462;SDS011;10390;53.566;9.980;2023-07-20T09:09:15;7.00;;;6.15;;
20462;SDS011;10390;53.566;9.980;2023-07-20T09:11:41;7.25;;;6.57;;
20462;SDS011;10390;53.566;9.980;2023-07-20T09:14:08;7.03;;;6.22;;
20462;SDS011;10390;53.566;9.980;2023-07-20T09:19:14;6.97;;;6.38;;
20462;SDS011;10390;53.566;9.980;2023-07-20T09:21:43;7.55;;;6.85;;
20462;SDS011;10390;53.566;9.980;2023-07-20T09:24:10;6.95;;;6.35;;
20462;SDS011;10390;53.566;9.980;2023-07-20T09:26:40;7.07;;;6.38;;
20462;SDS011;10390;53.566;9.980;2023-07-20T09:29:07;7.32;;;6.25;;
20462;SDS011;10390;53.566;9.980;2023-07-20T09:31:34;7.03;;;6.30;;
20462;SDS011;10390;53.566;9.980;2023-07-20T09:34:00;7.43;;;6.72;;
20462;SDS011;10390;53.566;9.980;2023-07-20T09:36:28;6.80;;;5.60;;
20462;SDS011;10390;53.566;9.980;2023-07-20T09:38:54;7.13;;;6.45;;
20462;SDS011;10390;53.566;9.980;2023-07-20T09:41:20;7.03;;;6.43;;
20462;SDS011;10390;53.566;9.980;2023-07-20T09:43:46;6.68;;;6.07;;
20462;SDS011;10390;53.566;9.980;2023-07-20T09:46:12;6.80;;;6.20;;
20462;SDS011;10390;53.566;9.980;2023-07-20T09:48:38;6.35;;;5.75;;
20462;SDS011;10390;53.566;9.980;2023-07-20T09:51:04;6.57;;;5.97;;
20462;SDS011;10390;53.566;9.980;2023-07-20T09:53:32;8.15;;;6.28;;
20462;SDS011;10390;53.566;9.980;2023-07-20T09:55:58;6.57;;;5.97;;
20462;SDS011;10390;53.566;9.980;2023-07-20T09:58:25;6.30;;;5.70;;
20462;SDS011;10390;53.566;9.980;2023-07-20T10:00:52;7.18;;;6.47;;
20462;SDS011;10390;53.566;9.980;2023-07-20T10:03:20;6.82;;;6.22;;
20462;SDS011;10390;53.566;9.980;2023-07-20T10:05:58;6.80;;;5.28;;
20462;SDS011;10390;53.566;9.980;2023-07-20T10:08:29;7.13;;;6.43;;
20462;SDS011;10390;53.566;9.980;2023-07-20T10:10:55;7.00;;;6.30;;
20462;SDS011;10390;53.566;9.980;2023-07-20T10:13:29;6.65;;;6.03;;
20462;SDS011;10390;53.566;9.980;2023-07-20T10:16:02;6.20;;;5.60;;
20462;SDS011;10390;53.566;9.980;2023-07-20T10:18:39;6.93;;;5.85;;
20462;SDS011;10390;53.566;9.980;2023-07-20T10:21:24;7.20;;;6.50;;
20462;SDS011;10390;53.566;9.980;2023-07-20T10:23:50;7.35;;;5.90;;
20462;SDS011;10390;53.566;9.980;2023-07-20T10:26:16;6.57;;;5.97;;
20462;SDS011;10390;53.566;9.980;2023-07-20T10:28:42;6.70;;;6.10;;
20462;SDS011;10390;53.566;9.980;2023-07-20T10:31:08;7.03;;;6.22;;
20462;SDS011;10390;53.566;9.980;2023-07-20T10:33:37;6.30;;;5.70;;
20462;SDS011;10390;53.566;9.980;2023-07-20T10:36:04;7.05;;;6.35;;
20462;SDS011;10390;53.566;9.980;2023-07-20T10:43:44;7.32;;;6.55;;
20462;SDS011;10390;53.566;9.980;2023-07-20T10:46:13;6.72;;;6.13;;
20462;SDS011;10390;53.566;9.980;2023-07-20T10:51:27;7.75;;;6.95;;
20462;SDS011;10390;53.566;9.980;2023-07-20T10:53:54;7.05;;;6.30;;
20462;SDS011;10390;53.566;9.980;2023-07-20T10:56:24;7.18;;;6.47;;
20462;SDS011;10390;53.566;9.980;2023-07-20T10:58:58;6.88;;;6.18;;
20462;SDS011;10390;53.566;9.980;2023-07-20T11:01:28;6.95;;;6.25;;
20462;SDS011;10390;53.566;9.980;2023-07-20T11:03:57;7.05;;;6.35;;
20462;SDS011;10390;53.566;9.980;2023-07-20T11:08:49;6.80;;;6.10;;
20462;SDS011;10390;53.566;9.980;2023-07-20T11:11:24;7.75;;;6.53;;
20462;SDS011;10390;53.566;9.980;2023-07-20T11:13:59;6.57;;;5.97;;
20462;SDS011;10390;53.566;9.980;2023-07-20T11:16:41;7.15;;;6.45;;
20462;SDS011;10390;53.566;9.980;2023-07-20T11:19:15;6.75;;;6.15;;
20462;SDS011;10390;53.566;9.980;2023-07-20T11:21:43;7.35;;;6.65;;
20462;SDS011;10390;53.566;9.980;2023-07-20T11:24:09;7.32;;;6.63;;
20462;SDS011;10390;53.566;9.980;2023-07-20T11:26:40;6.50;;;5.90;;
20462;SDS011;10390;53.566;9.980;2023-07-20T11:29:07;7.03;;;6.43;;
20462;SDS011;10390;53.566;9.980;2023-07-20T11:31:37;7.28;;;6.38;;
20462;SDS011;10390;53.566;9.980;2023-07-20T11:34:03;6.75;;;6.05;;
20462;SDS011;10390;53.566;9.980;2023-07-20T11:36:29;6.85;;;6.15;;
20462;SDS011;10390;53.566;9.980;2023-07-20T11:38:55;7.15;;;6.55;;
20462;SDS011;10390;53.566;9.980;2023-07-20T11:41:21;7.13;;;6.47;;
20462;SDS011;10390;53.566;9.980;2023-07-20T11:43:47;6.70;;;6.10;;
20462;SDS011;10390;53.566;9.980;2023-07-20T11:46:12;6.45;;;5.85;;
20462;SDS011;10390;53.566;9.980;2023-07-20T11:48:38;6.80;;;6.10;;
20462;SDS011;10390;53.566;9.980;2023-07-20T11:51:05;6.47;;;5.88;;
20462;SDS011;10390;53.566;9.980;2023-07-20T11:53:30;6.30;;;5.70;;
20462;SDS011;10390;53.566;9.980;2023-07-20T11:55:58;6.70;;;6.10;;
20462;SDS011;10390;53.566;9.980;2023-07-20T11:58:24;6.40;;;5.78;;
20462;SDS011;10390;53.566;9.980;2023-07-20T12:00:52;7.05;;;6.45;;
20462;SDS011;10390;53.566;9.980;2023-07-20T12:03:21;6.63;;;5.95;;
20462;SDS011;10390;53.566;9.980;2023-07-20T12:05:46;6.68;;;6.03;;
20462;SDS011;10390;53.566;9.980;2023-07-20T12:08:12;6.45;;;5.85;;
20462;SDS011;10390;53.566;9.980;2023-07-20T12:10:39;7.05;;;6.07;;
20462;SDS011;10390;53.566;9.980;2023-07-20T12:13:09;6.28;;;5.78;;
20462;SDS011;10390;53.566;9.980;2023-07-20T12:15:38;6.93;;;6.22;;
20462;SDS011;10390;53.566;9.980;2023-07-20T12:18:04;6.90;;;6.30;;
20462;SDS011;10390;53.566;9.980;2023-07-20T12:20:32;6.63;;;6.03;;
20462;SDS011;10390;53.566;9.980;2023-07-20T12:23:03;6.43;;;5.88;;
20462;SDS011;10390;53.566;9.980;2023-07-20T12:25:37;6.13;;;5.63;;
20462;SDS011;10390;53.566;9.980;2023-07-20T12:28:07;6.50;;;5.90;;
20462;SDS011;10390;53.566;9.980;2023-07-20T12:30:34;6.80;;;6.20;;
20462;SDS011;10390;53.566;9.980;2023-07-20T12:33:01;6.10;;;5.53;;
20462;SDS011;10390;53.566;9.980;2023-07-20T12:35:28;5.93;;;5.35;;
20462;SDS011;10390;53.566;9.980;2023-07-20T12:37:54;6.47;;;5.88;;
20462;SDS011;10390;53.566;9.980;2023-07-20T12:40:20;6.35;;;5.85;;
20462;SDS011;10390;53.566;9.980;2023-07-20T12:42:46;6.63;;;5.93;;
20462;SDS011;10390;53.566;9.980;2023-07-20T12:45:12;6.30;;;5.70;;
20462;SDS011;10390;53.566;9.980;2023-07-20T12:47:39;6.07;;;5.47;;
20462;SDS011;10390;53.566;9.980;2023-07-20T12:50:05;6.38;;;5.78;;
20462;SDS011;10390;53.566;9.980;2023-07-20T12:52:32;6.72;;;6.13;;
20462;SDS011;10390;53.566;9.980;2023-07-20T12:55:01;6.20;;;5.68;;
20462;SDS011;10390;53.566;9.980;2023-07-20T12:57:27;6.82;;;6.22;;
20462;SDS011;10390;53.566;9.980;2023-07-20T12:59:53;6.65;;;5.97;;
20462;SDS011;10390;53.566;9.980;2023-07-20T13:02:18;7.03;;;6.43;;
20462;SDS011;10390;53.566;9.980;2023-07-20T13:04:44;6.43;;;5.82;;
20462;SDS011;10390;53.566;9.980;2023-07-20T13:07:10;6.60;;;6.00;;
20462;SDS011;10390;53.566;9.980;2023-07-20T13:09:38;6.05;;;5.45;;
20462;SDS011;10390;53.566;9.980;2023-07-20T13:12:04;6.50;;;5.80;;
20462;SDS011;10390;53.566;9.980;2023-07-20T13:14:29;6.22;;;5.70;;
20462;SDS011;10390;53.566;9.980;2023-07-20T13:16:55;6.55;;;6.05;;
20462;SDS011;10390;53.566;9.980;2023-07-20T13:19:21;6.97;;;6.38;;
20462;SDS011;10390;53.566;9.980;2023-07-20T13:21:47;5.60;;;5.10;;
20462;SDS011;10390;53.566;9.980;2023-07-20T13:24:13;6.50;;;5.90;;
20462;SDS011;10390;53.566;9.980;2023-07-20T13:26:38;6.30;;;5.70;;
20462;SDS011;10390;53.566;9.980;2023-07-20T13:29:04;6.60;;;6.00;;
20462;SDS011;10390;53.566;9.980;2023-07-20T13:31:30;6.20;;;5.70;;
20462;SDS011;10390;53.566;9.980;2023-07-20T13:33:55;5.85;;;5.35;;
20462;SDS011;10390;53.566;9.980;2023-07-20T13:36:21;6.40;;;5.80;;
20462;SDS011;10390;53.566;9.980;2023-07-20T13:38:47;5.65;;;5.15;;
20462;SDS011;10390;53.566;9.980;2023-07-20T13:41:13;6.15;;;5.55;;
20462;SDS011;10390;53.566;9.980;2023-07-20T13:43:41;6.18;;;5.47;;
20462;SDS011;10390;53.566;9.980;2023-07-20T13:46:07;6.85;;;6.35;;
20462;SDS011;10390;53.566;9.980;2023-07-20T13:48:32;6.65;;;6.15;;
20462;SDS011;10390;53.566;9.980;2023-07-20T13:50:58;6.95;;;6.38;;
20462;SDS011;10390;53.566;9.980;2023-07-20T13:53:23;6.45;;;5.90;;
20462;SDS011;10390;53.566;9.980;2023-07-20T13:55:49;6.20;;;5.60;;
20462;SDS011;10390;53.566;9.980;2023-07-20T13:58:15;6.30;;;5.80;;
20462;SDS011;10390;53.566;9.980;2023-07-20T14:00:40;6.22;;;5.72;;
20462;SDS011;10390;53.566;9.980;2023-07-20T14:03:06;6.68;;;6.18;;
20462;SDS011;10390;53.566;9.980;2023-07-20T14:05:31;6.90;;;6.40;;
20462;SDS011;10390;53.566;9.980;2023-07-20T14:07:58;6.80;;;6.20;;
20462;SDS011;10390;53.566;9.980;2023-07-20T14:10:24;7.35;;;6.65;;
20462;SDS011;10390;53.566;9.980;2023-07-20T14:12:50;6.90;;;6.40;;
20462;SDS011;10390;53.566;9.980;2023-07-20T14:15:15;6.45;;;5.93;;
20462;SDS011;10390;53.566;9.980;2023-07-20T14:17:42;6.70;;;6.20;;
20462;SDS011;10390;53.566;9.980;2023-07-20T14:20:08;6.85;;;6.30;;
20462;SDS011;10390;53.566;9.980;2023-07-20T14:22:34;6.40;;;5.90;;
20462;SDS011;10390;53.566;9.980;2023-07-20T14:25:00;6.30;;;5.80;;
20462;SDS011;10390;53.566;9.980;2023-07-20T14:27:25;7.45;;;6.85;;
20462;SDS011;10390;53.566;9.980;2023-07-20T14:29:51;7.40;;;6.80;;
20462;SDS011;10390;53.566;9.980;2023-07-20T14:32:18;6.55;;;6.03;;
20462;SDS011;10390;53.566;9.980;2023-07-20T14:34:43;6.43;;;5.93;;
20462;SDS011;10390;53.566;9.980;2023-07-20T14:37:09;6.75;;;6.05;;
20462;SDS011;10390;53.566;9.980;2023-07-20T14:39:35;6.25;;;5.75;;
20462;SDS011;10390;53.566;9.980;2023-07-20T14:42:01;5.93;;;5.43;;
20462;SDS011;10390;53.566;9.980;2023-07-20T14:44:28;6.28;;;5.78;;
20462;SDS011;10390;53.566;9.980;2023-07-20T14:46:54;6.18;;;5.68;;
20462;SDS011;10390;53.566;9.980;2023-07-20T14:49:20;6.65;;;6.05;;
20462;SDS011;10390;53.566;9.980;2023-07-20T14:51:46;6.05;;;5.55;;
20462;SDS011;10390;53.566;9.980;2023-07-20T14:54:12;6.30;;;5.80;;
20462;SDS011;10390;53.566;9.980;2023-07-20T14:56:38;6.20;;;5.65;;
20462;SDS011;10390;53.566;9.980;2023-07-20T14:59:10;6.50;;;5.90;;
20462;SDS011;10390;53.566;9.980;2023-07-20T15:01:35;6.32;;;5.72;;
20462;SDS011;10390;53.566;9.980;2023-07-20T15:04:01;6.93;;;6.28;;
20462;SDS011;10390;53.566;9.980;2023-07-20T15:06:26;6.28;;;5.78;;
20462;SDS011;10390;53.566;9.980;2023-07-20T15:08:55;5.95;;;5.45;;